createdAt,value
2022-08-09T00:00:00.582Z,23.10
2022-08-09T00:02:33.476Z,23.10
2022-08-09T00:06:15.791Z,23.10
2022-08-09T00:07:52.364Z,23.00
2022-08-09T00:10:24.631Z,23.00
2022-08-09T00:12:53.533Z,23.00
2022-08-09T00:15:35.377Z,22.90
2022-08-09T00:18:12.391Z,22.90
2022-08-09T00:20:50.127Z,22.90
2022-08-09T00:23:57.991Z,22.80
2022-08-09T00:26:11.001Z,22.80
2022-08-09T00:28:40.822Z,22.70
2022-08-09T00:31:57.173Z,22.70
2022-08-09T00:33:57.166Z,22.70
2022-08-09T00:36:27.152Z,22.60
2022-08-09T00:38:59.014Z,22.70
2022-08-09T00:44:09.818Z,22.60
2022-08-09T00:44:26.753Z,22.60
2022-08-09T00:47:04.844Z,22.60
2022-08-09T00:49:34.886Z,22.50
2022-08-09T00:52:17.429Z,22.50
2022-08-09T00:54:48.538Z,22.50
2022-08-09T00:57:33.937Z,22.40
2022-08-09T01:00:21.743Z,22.40
2022-08-09T01:02:54.229Z,22.40
2022-08-09T01:05:50.785Z,22.30
2022-08-09T01:08:27.603Z,22.30
2022-08-09T01:11:14.875Z,22.30
2022-08-09T01:13:59.586Z,22.30
2022-08-09T01:16:35.094Z,22.30
2022-08-09T01:19:17.113Z,22.30
2022-08-09T01:22:16.452Z,22.20
2022-08-09T01:24:56.801Z,22.20
2022-08-09T01:27:27.599Z,22.20
2022-08-09T01:30:01.136Z,22.10
2022-08-09T01:32:35.248Z,22.10
2022-08-09T01:35:28.764Z,22.10
2022-08-09T01:38:08.092Z,22.10
2022-08-09T01:40:44.938Z,22.10
2022-08-09T01:43:24.362Z,22.00
2022-08-09T01:45:58.034Z,22.00
2022-08-09T01:48:29.746Z,22.00
2022-08-09T01:51:00.503Z,22.00
2022-08-09T01:53:41.305Z,21.90
2022-08-09T01:56:12.603Z,21.90
2022-08-09T01:58:49.018Z,21.90
2022-08-09T02:01:19.975Z,21.90
2022-08-09T02:04:00.963Z,21.90
2022-08-09T02:06:45.520Z,21.90
2022-08-09T02:09:24.666Z,21.90
2022-08-09T02:11:54.194Z,21.80
2022-08-09T02:14:28.448Z,21.80
2022-08-09T02:17:15.456Z,21.80
2022-08-09T02:19:47.161Z,21.80
2022-08-09T02:22:31.801Z,21.80
2022-08-09T02:25:08.910Z,21.70
2022-08-09T02:27:57.735Z,21.70
2022-08-09T02:30:34.101Z,21.70
2022-08-09T02:33:07.808Z,21.70
2022-08-09T02:36:01.853Z,21.60
2022-08-09T02:38:36.360Z,21.60
2022-08-09T02:41:09.513Z,21.60
2022-08-09T02:43:53.445Z,21.50
2022-08-09T02:46:28.632Z,21.50
2022-08-09T02:49:00.415Z,21.50
2022-08-09T02:51:36.919Z,21.50
2022-08-09T02:54:10.984Z,21.50
2022-08-09T02:56:51.118Z,21.40
2022-08-09T02:59:26.296Z,21.40
2022-08-09T03:02:16.784Z,21.40
2022-08-09T03:04:50.681Z,21.40
2022-08-09T03:07:20.461Z,21.40
2022-08-09T03:09:56.318Z,21.30
2022-08-09T03:12:25.820Z,21.30
2022-08-09T03:14:54.831Z,21.30
2022-08-09T03:17:27.147Z,21.30
2022-08-09T03:20:03.487Z,21.20
2022-08-09T03:22:42.260Z,21.20
2022-08-09T03:25:26.053Z,21.20
2022-08-09T03:28:04.006Z,21.20
2022-08-09T03:30:34.262Z,21.10
2022-08-09T03:33:17.595Z,21.10
2022-08-09T03:36:12.281Z,21.10
2022-08-09T03:38:42.755Z,21.00
2022-08-09T03:41:15.215Z,21.00
2022-08-09T03:44:03.005Z,21.00
2022-08-09T03:46:32.698Z,21.00
2022-08-09T03:49:08.841Z,20.90
2022-08-09T03:51:56.331Z,20.90
2022-08-09T03:54:31.717Z,20.90
2022-08-09T03:57:04.531Z,20.90
2022-08-09T03:59:53.715Z,20.90
2022-08-09T04:02:30.557Z,21.00
2022-08-09T04:05:05.769Z,21.20
2022-08-09T04:07:52.865Z,21.20
2022-08-09T04:10:28.879Z,21.30
2022-08-09T04:13:01.078Z,21.30
2022-08-09T04:16:17.042Z,21.20
2022-08-09T04:18:21.236Z,21.20
2022-08-09T04:20:51.717Z,21.20
2022-08-09T04:23:24.329Z,21.10
2022-08-09T04:25:54.761Z,21.10
2022-08-09T04:28:33.058Z,21.10
2022-08-09T04:31:09.756Z,21.00
2022-08-09T04:33:51.538Z,21.00
2022-08-09T04:36:25.049Z,20.90
2022-08-09T04:38:53.846Z,20.90
2022-08-09T04:41:23.763Z,20.90
2022-08-09T04:44:05.054Z,20.90
2022-08-09T04:46:38.108Z,20.80
2022-08-09T04:49:40.058Z,20.80
2022-08-09T04:52:18.322Z,20.80
2022-08-09T04:54:54.668Z,20.80
2022-08-09T04:57:23.939Z,20.70
2022-08-09T04:59:53.552Z,20.70
2022-08-09T05:02:21.802Z,20.70
2022-08-09T05:04:53.185Z,20.70
2022-08-09T05:07:29.124Z,20.70
2022-08-09T05:10:01.983Z,20.70
2022-08-09T05:12:33.157Z,20.80
2022-08-09T05:15:03.368Z,20.80
2022-08-09T05:18:42.348Z,20.80
2022-08-09T05:20:21.268Z,20.80
2022-08-09T05:23:54.625Z,20.80
2022-08-09T05:25:50.957Z,20.90
2022-08-09T05:28:20.207Z,20.90
2022-08-09T05:30:51.605Z,21.00
2022-08-09T05:33:20.213Z,21.00
2022-08-09T05:35:57.209Z,21.00
2022-08-09T05:38:27.944Z,21.00
2022-08-09T05:40:56.223Z,21.10
2022-08-09T05:43:24.741Z,21.10
2022-08-09T05:46:00.134Z,21.10
2022-08-09T05:48:32.955Z,21.20
2022-08-09T05:51:42.938Z,21.20
2022-08-09T05:53:57.527Z,21.30
2022-08-09T05:56:27.130Z,21.30
2022-08-09T05:58:58.567Z,21.30
2022-08-09T06:01:27.197Z,21.40
2022-08-09T06:04:05.455Z,21.40
2022-08-09T06:06:34.338Z,21.50
2022-08-09T06:09:05.594Z,21.50
2022-08-09T06:11:57.053Z,21.50
2022-08-09T06:14:25.932Z,21.70
2022-08-09T06:16:55.488Z,21.70
2022-08-09T06:19:26.550Z,21.80
2022-08-09T06:21:59.285Z,21.80
2022-08-09T06:24:28.981Z,21.90
2022-08-09T06:26:57.504Z,21.90
2022-08-09T06:29:26.885Z,22.00
2022-08-09T06:32:17.253Z,22.00
2022-08-09T06:34:43.326Z,22.10
2022-08-09T06:37:11.485Z,22.20
2022-08-09T06:39:57.921Z,22.30
2022-08-09T06:42:30.841Z,22.30
2022-08-09T06:45:20.470Z,22.40
2022-08-09T06:47:58.046Z,22.50
2022-08-09T06:50:30.942Z,22.50
2022-08-09T06:53:00.786Z,22.60
2022-08-09T06:55:33.092Z,22.60
2022-08-09T06:58:04.520Z,22.80
2022-08-09T07:00:50.509Z,22.80
2022-08-09T07:03:27.960Z,22.90
2022-08-09T07:06:03.578Z,22.90
2022-08-09T07:08:33.935Z,23.00
2022-08-09T07:11:06.287Z,23.10
2022-08-09T07:13:45.036Z,23.10
2022-08-09T07:16:41.909Z,23.20
2022-08-09T07:19:15.379Z,23.20
2022-08-09T07:21:55.207Z,23.40
2022-08-09T07:24:32.918Z,23.40
2022-08-09T07:27:33.847Z,23.50
2022-08-09T07:30:00.647Z,23.60
2022-08-09T07:32:32.112Z,23.70
2022-08-09T07:35:08.160Z,23.80
2022-08-09T07:37:44.416Z,23.90
2022-08-09T07:40:17.374Z,23.90
2022-08-09T07:42:56.382Z,24.10
2022-08-09T07:45:38.196Z,24.10
2022-08-09T07:48:28.563Z,24.20
2022-08-09T07:51:10.051Z,24.30
2022-08-09T07:54:05.461Z,24.40
2022-08-09T07:56:36.919Z,24.50
2022-08-09T07:59:14.077Z,24.50
2022-08-09T08:01:53.022Z,24.60
2022-08-09T08:04:25.461Z,24.70
2022-08-09T08:07:00.409Z,24.80
2022-08-09T08:09:51.451Z,24.90
2022-08-09T08:12:36.657Z,25.00
2022-08-09T08:15:08.026Z,25.10
2022-08-09T08:17:53.778Z,25.20
2022-08-09T08:20:29.381Z,25.30
2022-08-09T08:23:03.811Z,25.40
2022-08-09T08:25:48.179Z,25.40
2022-08-09T08:28:18.131Z,25.50
2022-08-09T08:30:55.913Z,25.60
2022-08-09T08:33:24.826Z,25.70
2022-08-09T08:35:59.245Z,25.80
2022-08-09T08:38:29.666Z,25.90
2022-08-09T08:40:59.367Z,25.90
2022-08-09T08:43:27.813Z,26.00
2022-08-09T08:46:09.802Z,26.10
2022-08-09T08:48:53.998Z,26.20
2022-08-09T08:51:23.595Z,26.30
2022-08-09T08:54:03.120Z,26.40
2022-08-09T08:56:35.452Z,26.50
2022-08-09T08:59:18.736Z,26.60
2022-08-09T09:01:52.041Z,26.70
2022-08-09T09:04:27.266Z,26.80
2022-08-09T09:06:59.186Z,26.90
2022-08-09T09:09:58.332Z,27.00
2022-08-09T09:12:20.769Z,27.10
2022-08-09T09:14:50.091Z,27.20
2022-08-09T09:17:22.197Z,27.30
2022-08-09T09:19:51.167Z,27.40
2022-08-09T09:22:26.661Z,27.50
2022-08-09T09:26:02.013Z,27.50
2022-08-09T09:28:04.055Z,27.60
2022-08-09T09:30:41.148Z,27.60
2022-08-09T09:33:14.352Z,27.80
2022-08-09T09:36:02.242Z,27.80
2022-08-09T09:38:46.515Z,28.00
2022-08-09T09:41:33.043Z,28.10
2022-08-09T09:44:11.088Z,28.10
2022-08-09T09:46:45.940Z,28.20
2022-08-09T09:49:50.141Z,28.30
2022-08-09T09:52:33.459Z,28.30
2022-08-09T09:55:16.691Z,28.40
2022-08-09T09:58:03.825Z,28.50
2022-08-09T10:00:54.425Z,28.60
2022-08-09T10:03:57.200Z,28.70
2022-08-09T10:06:32.350Z,28.70
2022-08-09T10:09:21.606Z,28.80
2022-08-09T10:12:07.860Z,28.90
2022-08-09T10:14:48.035Z,28.90
2022-08-09T10:17:54.839Z,29.00
2022-08-09T10:20:31.826Z,29.00
2022-08-09T10:23:17.147Z,29.10
2022-08-09T10:26:04.866Z,29.10
2022-08-09T10:28:36.788Z,29.10
2022-08-09T10:34:11.424Z,29.30
2022-08-09T10:36:43.508Z,29.30
2022-08-09T10:39:19.986Z,29.40
2022-08-09T10:41:48.599Z,29.50
2022-08-09T10:44:21.884Z,29.50
2022-08-09T10:47:20.369Z,29.50
2022-08-09T10:50:26.973Z,29.50
2022-08-09T10:53:10.431Z,29.60
2022-08-09T10:55:58.269Z,29.60
2022-08-09T10:58:33.895Z,29.60
2022-08-09T11:03:06.430Z,29.60
2022-08-09T11:04:28.283Z,29.60
2022-08-09T11:07:56.891Z,29.60
2022-08-09T11:10:18.229Z,29.70
2022-08-09T11:13:50.156Z,29.70
2022-08-09T11:16:48.125Z,29.70
2022-08-09T11:20:19.765Z,29.80
2022-08-09T11:23:00.704Z,29.80
2022-08-09T11:25:49.374Z,29.90
2022-08-09T11:28:56.562Z,29.90
2022-08-09T11:31:52.994Z,29.90
2022-08-09T11:34:43.917Z,29.90
2022-08-09T11:37:23.759Z,29.90
2022-08-09T11:40:04.164Z,30.00
2022-08-09T11:42:50.565Z,29.90
2022-08-09T11:45:23.236Z,30.00
2022-08-09T11:48:01.440Z,30.10
2022-08-09T11:52:56.991Z,30.10
2022-08-09T11:54:13.124Z,30.20
2022-08-09T11:56:47.766Z,30.20
2022-08-09T11:59:30.529Z,30.20
2022-08-09T12:02:35.268Z,30.20
2022-08-09T12:04:58.953Z,30.20
2022-08-09T12:07:41.256Z,30.20
2022-08-09T12:10:14.443Z,30.20
2022-08-09T12:13:03.791Z,30.20
2022-08-09T12:15:52.154Z,30.30
2022-08-09T12:18:25.913Z,30.30
2022-08-09T12:21:00.605Z,30.30
2022-08-09T12:23:57.867Z,30.40
2022-08-09T12:26:26.075Z,30.50
2022-08-09T12:29:10.127Z,30.50
2022-08-09T12:32:02.291Z,30.50
2022-08-09T12:34:37.504Z,30.50
2022-08-09T12:37:22.184Z,30.60
2022-08-09T12:40:07.838Z,30.60
2022-08-09T12:42:37.649Z,30.60
2022-08-09T12:45:34.005Z,30.60
2022-08-09T12:47:58.610Z,30.60
2022-08-09T12:50:28.649Z,30.70
2022-08-09T12:53:09.249Z,30.70
2022-08-09T12:56:14.701Z,30.70
2022-08-09T12:58:33.928Z,30.80
2022-08-09T13:01:05.142Z,30.80
2022-08-09T13:03:58.946Z,30.80
2022-08-09T13:06:33.900Z,30.80
2022-08-09T13:09:07.549Z,30.80
2022-08-09T13:11:42.570Z,30.80
2022-08-09T13:14:40.808Z,30.80
2022-08-09T13:17:08.650Z,30.70
2022-08-09T13:20:07.248Z,30.70
2022-08-09T13:22:35.262Z,30.70
2022-08-09T13:25:08.000Z,30.60
2022-08-09T13:27:55.029Z,30.60
2022-08-09T13:30:50.004Z,30.60
2022-08-09T13:33:23.682Z,30.60
2022-08-09T13:36:24.271Z,30.60
2022-08-09T13:38:56.595Z,30.70
2022-08-09T13:41:58.409Z,30.70
2022-08-09T13:44:16.809Z,30.70
2022-08-09T13:47:19.323Z,30.70
2022-08-09T13:49:37.992Z,30.60
2022-08-09T13:52:09.487Z,30.70
2022-08-09T13:54:42.997Z,30.60
2022-08-09T13:57:37.239Z,30.60
2022-08-09T14:00:12.424Z,30.60
2022-08-09T14:03:57.800Z,30.50
2022-08-09T14:05:58.172Z,30.50
2022-08-09T14:08:19.384Z,30.50
2022-08-09T14:10:52.214Z,30.50
2022-08-09T14:14:15.012Z,30.40
2022-08-09T14:16:14.474Z,30.40
2022-08-09T14:18:45.832Z,30.40
2022-08-09T14:21:22.718Z,30.40
2022-08-09T14:23:55.127Z,30.40
2022-08-09T14:26:30.537Z,30.50
2022-08-09T14:29:03.142Z,30.50
2022-08-09T14:31:36.002Z,30.50
2022-08-09T14:34:31.724Z,30.50
2022-08-09T14:37:01.594Z,30.60
2022-08-09T14:39:39.839Z,30.60
2022-08-09T14:42:30.700Z,30.60
2022-08-09T14:45:52.008Z,30.60
2022-08-09T14:47:57.439Z,30.50
2022-08-09T14:50:31.621Z,30.50
2022-08-09T14:53:01.296Z,30.50
2022-08-09T14:55:32.714Z,30.50
2022-08-09T14:58:05.182Z,30.50
2022-08-09T15:00:36.093Z,30.50
2022-08-09T15:03:05.352Z,30.50
2022-08-09T15:05:33.879Z,30.50
2022-08-09T15:08:10.464Z,30.50
2022-08-09T15:10:39.007Z,30.50
2022-08-09T15:13:10.164Z,30.50
2022-08-09T15:15:39.632Z,30.50
2022-08-09T15:18:12.345Z,30.50
2022-08-09T15:22:01.049Z,30.50
2022-08-09T15:24:00.651Z,30.50
2022-08-09T15:26:30.736Z,30.40
2022-08-09T15:29:04.726Z,30.50
2022-08-09T15:31:40.934Z,30.50
2022-08-09T15:34:32.166Z,30.40
2022-08-09T15:36:59.949Z,30.40
2022-08-09T15:39:49.891Z,30.40
2022-08-09T15:42:20.367Z,30.40
2022-08-09T15:44:51.601Z,30.40
2022-08-09T15:47:22.324Z,30.30
2022-08-09T15:50:04.079Z,30.30
2022-08-09T15:52:34.216Z,30.20
2022-08-09T15:55:02.709Z,30.20
2022-08-09T15:57:35.550Z,30.20
2022-08-09T16:00:24.537Z,30.10
2022-08-09T16:02:56.558Z,30.10
2022-08-09T16:05:47.723Z,30.10
2022-08-09T16:08:30.005Z,30.00
2022-08-09T16:10:59.804Z,30.00
2022-08-09T16:14:03.638Z,30.00
2022-08-09T16:16:28.282Z,30.00
2022-08-09T16:18:56.768Z,29.90
2022-08-09T16:21:26.181Z,29.90
2022-08-09T16:23:58.808Z,29.90
2022-08-09T16:26:35.273Z,29.90
2022-08-09T16:29:12.125Z,29.90
2022-08-09T16:32:17.597Z,29.90
2022-08-09T16:34:54.448Z,29.80
2022-08-09T16:37:54.963Z,29.80
2022-08-09T16:40:12.385Z,29.80
2022-08-09T16:42:45.481Z,29.80
2022-08-09T16:45:14.997Z,29.70
2022-08-09T16:48:40.195Z,29.70
2022-08-09T16:50:38.761Z,29.70
2022-08-09T16:53:08.940Z,29.60
2022-08-09T16:55:58.715Z,29.70
2022-08-09T16:58:25.975Z,29.60
2022-08-09T17:00:54.895Z,29.60
2022-08-09T17:03:25.146Z,29.60
2022-08-09T17:06:07.321Z,29.60
2022-08-09T17:08:46.752Z,29.50
2022-08-09T17:11:39.999Z,29.50
2022-08-09T17:14:26.430Z,29.50
2022-08-09T17:17:01.139Z,29.50
2022-08-09T17:19:46.588Z,29.40
2022-08-09T17:22:23.956Z,29.40
2022-08-09T17:25:03.439Z,29.40
2022-08-09T17:27:33.414Z,29.40
2022-08-09T17:30:04.831Z,29.40
2022-08-09T17:32:38.217Z,29.40
2022-08-09T17:35:11.284Z,29.30
2022-08-09T17:38:11.325Z,29.30
2022-08-09T17:40:31.930Z,29.30
2022-08-09T17:43:10.767Z,29.30
2022-08-09T17:46:03.863Z,29.30
2022-08-09T17:48:38.309Z,29.20
2022-08-09T17:51:18.380Z,29.20
2022-08-09T17:53:53.398Z,29.10
2022-08-09T17:56:27.966Z,29.10
2022-08-09T17:58:58.054Z,29.10
2022-08-09T18:01:40.800Z,29.00
2022-08-09T18:04:14.544Z,29.10
2022-08-09T18:06:54.052Z,29.00
2022-08-09T18:09:25.043Z,28.90
2022-08-09T18:12:15.515Z,29.00
2022-08-09T18:14:49.797Z,29.00
2022-08-09T18:17:26.857Z,28.90
2022-08-09T18:20:59.455Z,28.80
2022-08-09T18:22:59.747Z,28.80
2022-08-09T18:25:50.604Z,28.70
2022-08-09T18:30:40.805Z,28.70
2022-08-09T18:31:09.598Z,28.60
2022-08-09T18:33:37.739Z,28.60
2022-08-09T18:36:14.306Z,28.60
2022-08-09T18:39:00.950Z,28.50
2022-08-09T18:41:34.649Z,28.50
2022-08-09T18:44:13.074Z,28.40
2022-08-09T18:46:47.503Z,28.40
2022-08-09T18:49:28.412Z,28.30
2022-08-09T18:52:00.608Z,28.20
2022-08-09T18:54:30.461Z,28.20
2022-08-09T18:57:06.193Z,28.10
2022-08-09T18:59:37.700Z,28.00
2022-08-09T19:02:18.120Z,28.00
2022-08-09T19:04:47.555Z,27.90
2022-08-09T19:07:16.612Z,27.90
2022-08-09T19:10:17.098Z,27.80
2022-08-09T19:12:36.634Z,27.80
2022-08-09T19:15:07.408Z,27.70
2022-08-09T19:17:54.387Z,27.70
2022-08-09T19:20:24.914Z,27.60
2022-08-09T19:22:54.732Z,27.60
2022-08-09T19:25:42.741Z,27.50
2022-08-09T19:28:13.659Z,27.50
2022-08-09T19:30:44.588Z,27.40
2022-08-09T19:33:19.322Z,27.40
2022-08-09T19:35:58.545Z,27.30
2022-08-09T19:38:29.729Z,27.30
2022-08-09T19:41:01.685Z,27.20
2022-08-09T19:44:00.431Z,27.20
2022-08-09T19:46:34.181Z,27.20
2022-08-09T19:50:07.381Z,27.10
2022-08-09T19:51:57.048Z,27.00
2022-08-09T19:54:25.819Z,27.00
2022-08-09T19:56:55.528Z,27.00
2022-08-09T19:59:39.358Z,26.90
2022-08-09T20:04:06.975Z,26.90
2022-08-09T20:05:02.506Z,26.80
2022-08-09T20:07:58.956Z,26.80
2022-08-09T20:10:34.663Z,26.70
2022-08-09T20:13:10.417Z,26.70
2022-08-09T20:16:33.030Z,26.70
2022-08-09T20:18:28.066Z,26.60
2022-08-09T20:20:57.247Z,26.60
2022-08-09T20:23:38.604Z,26.50
2022-08-09T20:26:08.412Z,26.50
2022-08-09T20:28:47.956Z,26.40
2022-08-09T20:31:17.240Z,26.40
2022-08-09T20:33:45.582Z,26.40
2022-08-09T20:36:14.237Z,26.30
2022-08-09T20:41:35.157Z,26.20
2022-08-09T20:44:10.522Z,26.20
2022-08-09T20:46:42.878Z,26.20
2022-08-09T20:49:14.119Z,26.10
2022-08-09T20:51:45.131Z,26.10
2022-08-09T20:54:19.078Z,26.00
2022-08-09T20:56:49.695Z,26.00
2022-08-09T21:00:19.825Z,25.90
2022-08-09T21:02:17.295Z,25.90
2022-08-09T21:05:53.137Z,25.90
2022-08-09T21:07:40.528Z,25.80
2022-08-09T21:10:11.525Z,25.80
2022-08-09T21:12:40.397Z,25.80
2022-08-09T21:15:34.721Z,25.80
2022-08-09T21:18:21.688Z,25.80
2022-08-09T21:20:54.431Z,25.80
2022-08-09T21:23:35.964Z,25.80
2022-08-09T21:26:12.538Z,25.80
2022-08-09T21:28:55.583Z,25.70
2022-08-09T21:31:49.155Z,25.70
2022-08-09T21:34:21.061Z,25.70
2022-08-09T21:36:57.294Z,25.70
2022-08-09T21:39:28.285Z,25.60
2022-08-09T21:42:11.117Z,25.60
2022-08-09T21:44:39.556Z,25.50
2022-08-09T21:47:17.384Z,25.50
2022-08-09T21:49:46.651Z,25.40
2022-08-09T21:52:20.350Z,25.40
2022-08-09T21:54:56.882Z,25.40
2022-08-09T21:57:39.311Z,25.30
2022-08-09T22:00:25.341Z,25.30
2022-08-09T22:02:58.830Z,25.20
2022-08-09T22:05:35.403Z,25.20
2022-08-09T22:08:05.098Z,25.10
2022-08-09T22:10:33.394Z,25.10
2022-08-09T22:13:07.433Z,25.10
2022-08-09T22:15:40.049Z,25.10
2022-08-09T22:18:12.102Z,25.00
2022-08-09T22:20:41.221Z,25.00
2022-08-09T22:23:10.645Z,25.00
2022-08-09T22:26:07.135Z,24.90
2022-08-09T22:28:32.846Z,24.90
2022-08-09T22:31:02.121Z,24.80
2022-08-09T22:33:42.607Z,24.80
2022-08-09T22:36:20.487Z,24.80
2022-08-09T22:38:49.141Z,24.80
2022-08-09T22:41:17.623Z,24.70
2022-08-09T22:44:03.735Z,24.70
2022-08-09T22:48:15.373Z,24.70
2022-08-09T22:49:23.439Z,24.60
2022-08-09T22:51:57.190Z,24.60
2022-08-09T22:54:27.498Z,24.60
2022-08-09T22:56:56.986Z,24.50
2022-08-09T22:59:57.543Z,24.50
2022-08-09T23:02:20.063Z,24.50
2022-08-09T23:04:53.826Z,24.40
2022-08-09T23:08:21.353Z,24.40
2022-08-09T23:10:28.686Z,24.40
2022-08-09T23:12:56.818Z,24.30
2022-08-09T23:15:25.001Z,24.30
2022-08-09T23:17:53.121Z,24.30
2022-08-09T23:20:23.118Z,24.30
2022-08-09T23:22:51.384Z,24.30
2022-08-09T23:25:19.487Z,24.20
2022-08-09T23:27:59.650Z,24.10
2022-08-09T23:30:35.849Z,24.10
2022-08-09T23:33:03.918Z,24.10
2022-08-09T23:36:05.592Z,24.10
2022-08-09T23:38:21.970Z,24.10
2022-08-09T23:40:51.918Z,24.10
2022-08-09T23:43:20.265Z,24.10
2022-08-09T23:45:48.580Z,24.00
2022-08-09T23:48:16.975Z,24.00
2022-08-09T23:50:46.533Z,24.00
2022-08-09T23:53:14.751Z,23.90
2022-08-09T23:55:49.784Z,23.90
2022-08-09T23:58:29.567Z,23.90
